Indian Creek Village, Florida
Current Conditions -  °F | °C
As of 8:53 AM on Monday 24 Nov 2014 (Local Time) from KOPF Reporting Station
Overcast Overcast  
Wind Chill: 27°   Ceiling: 900
Heat Index: 31°   Visibility: 10mi
Dew Point: 25°   Wind: 9mph
Humidity: 88%   Direction: 180°S
Pressure: 30.02"   Gusts: NA
Location:  25.882°N, 80.1292°W
Report Text: KOPF 241353Z 18008KT 10SM BKN009 OVC020 27/25 A3002 RMK AO2 SLP168 T02720250
Loading
Personal Weather Stations






























Interactive Weather Map New forecast layout! Learn more

10-Day Weather Forecast

Advertisements
Track Severe Weather on mobile